createdAt,value
2023-10-14T00:03:43.788Z,21.70
2023-10-14T00:08:55.672Z,21.65
2023-10-14T00:14:00.130Z,21.64
2023-10-14T00:19:05.992Z,21.63
2023-10-14T00:24:09.150Z,21.70
2023-10-14T00:29:20.889Z,21.85
2023-10-14T00:34:27.146Z,21.81
2023-10-14T00:39:32.670Z,21.66
2023-10-14T00:44:39.165Z,21.65
2023-10-14T00:49:44.053Z,21.65
2023-10-14T00:54:59.928Z,21.52
2023-10-14T01:00:10.982Z,21.58
2023-10-14T01:05:19.575Z,21.59
2023-10-14T01:10:26.729Z,21.49
2023-10-14T01:15:31.935Z,21.50
2023-10-14T01:20:39.074Z,21.46
2023-10-14T01:25:48.164Z,21.45
2023-10-14T01:31:32.164Z,21.34
2023-10-14T01:36:39.249Z,21.28
2023-10-14T01:41:45.012Z,21.29
2023-10-14T01:46:49.069Z,21.30
2023-10-14T01:51:52.704Z,21.27
2023-10-14T01:56:57.553Z,21.27
2023-10-14T02:02:00.553Z,21.31
2023-10-14T02:07:19.124Z,21.39
2023-10-14T02:12:23.741Z,21.33
2023-10-14T02:17:27.030Z,21.35
2023-10-14T02:22:31.667Z,21.23
2023-10-14T02:27:36.228Z,21.25
2023-10-14T02:32:39.230Z,21.21
2023-10-14T02:37:42.648Z,21.14
2023-10-14T02:42:47.815Z,21.06
2023-10-14T02:47:51.223Z,21.06
2023-10-14T02:53:02.400Z,21.10
2023-10-14T02:58:07.880Z,21.09
2023-10-14T03:03:16.535Z,21.10
2023-10-14T03:08:20.071Z,21.08
2023-10-14T03:13:25.034Z,21.07
2023-10-14T03:18:38.698Z,21.10
2023-10-14T03:23:43.155Z,20.97
2023-10-14T03:28:51.574Z,20.93
2023-10-14T03:34:00.053Z,20.93
2023-10-14T03:39:18.181Z,20.89
2023-10-14T03:44:24.985Z,20.88
2023-10-14T03:49:28.069Z,20.97
2023-10-14T03:54:42.606Z,21.06
2023-10-14T03:59:49.536Z,20.95
2023-10-14T04:04:59.404Z,20.91
2023-10-14T04:10:06.487Z,20.87
2023-10-14T04:15:34.713Z,20.93
2023-10-14T04:20:38.359Z,20.86
2023-10-14T04:25:43.899Z,20.80
2023-10-14T04:30:48.749Z,20.79
2023-10-14T04:36:00.048Z,20.82
2023-10-14T04:41:04.252Z,20.74
2023-10-14T04:46:17.323Z,20.76
2023-10-14T04:51:21.151Z,20.64
2023-10-14T04:56:31.343Z,20.49
2023-10-14T05:01:36.017Z,20.37
2023-10-14T05:06:42.696Z,20.27
2023-10-14T05:11:48.893Z,20.30
2023-10-14T05:16:55.671Z,20.23
2023-10-14T05:22:04.897Z,20.24
2023-10-14T05:27:10.033Z,20.24
2023-10-14T05:32:16.668Z,20.21
2023-10-14T05:37:22.783Z,20.24
2023-10-14T05:42:26.361Z,20.22
2023-10-14T05:47:30.772Z,20.29
2023-10-14T05:52:34.518Z,20.34
2023-10-14T05:57:40.913Z,20.24
2023-10-14T06:02:46.190Z,20.31
2023-10-14T06:07:49.231Z,20.30
2023-10-14T06:12:53.129Z,20.31
2023-10-14T06:17:58.664Z,20.26
2023-10-14T06:23:01.717Z,20.16
2023-10-14T06:28:06.095Z,20.18
2023-10-14T06:33:13.007Z,20.22
2023-10-14T06:38:21.043Z,20.31
2023-10-14T06:43:28.966Z,20.27
2023-10-14T06:48:34.069Z,20.31
2023-10-14T06:53:37.069Z,20.31
2023-10-14T06:58:40.596Z,20.36
2023-10-14T07:03:45.106Z,20.44
2023-10-14T07:08:50.110Z,20.52
2023-10-14T07:13:55.825Z,20.62
2023-10-14T07:19:01.251Z,20.61
2023-10-14T07:24:07.686Z,20.76
2023-10-14T07:29:11.461Z,20.73
2023-10-14T07:34:17.863Z,19.23
2023-10-14T07:39:29.917Z,16.76
2023-10-14T07:44:32.806Z,16.21
2023-10-14T07:49:39.253Z,16.42
2023-10-14T07:54:43.668Z,16.10
2023-10-14T07:59:46.714Z,16.45
2023-10-14T08:04:54.604Z,15.57
2023-10-14T08:09:57.629Z,15.66
2023-10-14T08:15:00.552Z,15.91
2023-10-14T08:20:13.538Z,15.72
2023-10-14T08:25:19.991Z,16.10
2023-10-14T08:30:25.302Z,15.95
2023-10-14T08:35:30.356Z,15.65
2023-10-14T08:40:33.569Z,15.98
2023-10-14T08:45:40.239Z,14.77
2023-10-14T08:50:46.464Z,13.65
2023-10-14T08:55:49.609Z,13.35
2023-10-14T09:00:55.191Z,13.29
2023-10-14T09:06:00.092Z,12.93
2023-10-14T09:11:04.517Z,13.43
2023-10-14T09:16:11.303Z,13.32
2023-10-14T09:21:15.753Z,13.47
2023-10-14T09:26:19.628Z,13.83
2023-10-14T09:31:27.476Z,13.46
2023-10-14T09:36:37.039Z,14.06
2023-10-14T09:41:40.507Z,14.71
2023-10-14T09:46:44.548Z,14.39
2023-10-14T09:51:49.502Z,14.49
2023-10-14T09:56:54.282Z,14.23
2023-10-14T10:01:57.312Z,14.34
2023-10-14T10:07:16.870Z,14.48
2023-10-14T10:12:22.013Z,14.74
2023-10-14T10:17:25.331Z,14.68
2023-10-14T10:22:41.089Z,14.96
2023-10-14T10:27:46.103Z,15.24
2023-10-14T10:32:51.441Z,15.27
2023-10-14T10:37:57.641Z,15.41
2023-10-14T10:43:07.137Z,15.26
2023-10-14T10:48:15.341Z,15.62
2023-10-14T10:53:22.286Z,15.37
2023-10-14T10:58:26.562Z,15.31
2023-10-14T11:03:30.590Z,15.46
2023-10-14T11:08:36.812Z,15.54
2023-10-14T11:13:40.570Z,14.97
2023-10-14T11:18:50.566Z,14.98
2023-10-14T11:23:55.576Z,14.91
2023-10-14T11:29:00.295Z,15.32
2023-10-14T11:34:04.118Z,15.41
2023-10-14T11:39:13.936Z,15.50
2023-10-14T11:44:19.643Z,15.30
2023-10-14T11:49:22.824Z,15.17
2023-10-14T11:54:28.755Z,15.14
2023-10-14T11:59:31.656Z,15.38
2023-10-14T12:04:34.829Z,14.93
2023-10-14T12:09:39.374Z,15.22
2023-10-14T12:14:42.323Z,15.01
2023-10-14T12:19:45.229Z,15.04
2023-10-14T12:24:49.734Z,15.15
2023-10-14T12:29:52.683Z,15.15
2023-10-14T12:34:55.572Z,15.21
2023-10-14T12:40:05.733Z,15.57
2023-10-14T12:45:14.067Z,15.40
2023-10-14T12:50:21.260Z,15.45
2023-10-14T12:55:25.890Z,15.62
2023-10-14T13:00:30.728Z,16.03
2023-10-14T13:05:33.766Z,15.79
2023-10-14T13:10:38.292Z,15.48
2023-10-14T13:15:41.554Z,15.42
2023-10-14T13:20:46.515Z,15.53
2023-10-14T13:25:50.814Z,15.44
2023-10-14T13:30:55.513Z,15.30
2023-10-14T13:35:58.773Z,15.34
2023-10-14T13:41:04.438Z,15.21
2023-10-14T13:46:07.641Z,15.15
2023-10-14T13:51:12.496Z,15.44
2023-10-14T13:56:16.861Z,15.34
2023-10-14T14:01:19.859Z,15.16
2023-10-14T14:06:26.807Z,15.00
2023-10-14T14:11:31.069Z,15.08
2023-10-14T14:16:37.453Z,15.17
2023-10-14T14:21:44.869Z,15.10
2023-10-14T14:26:50.165Z,15.18
2023-10-14T14:31:53.151Z,15.28
2023-10-14T14:36:56.118Z,15.35
2023-10-14T14:42:02.221Z,15.03
2023-10-14T14:47:05.429Z,14.92
2023-10-14T14:52:08.538Z,15.28
2023-10-14T14:57:12.861Z,15.21
2023-10-14T15:02:18.508Z,15.17
2023-10-14T15:07:22.397Z,15.01
2023-10-14T15:12:27.388Z,14.68
2023-10-14T15:17:31.232Z,14.94
2023-10-14T15:22:34.419Z,14.69
2023-10-14T15:27:38.772Z,14.73
2023-10-14T15:32:45.259Z,14.37
2023-10-14T15:37:49.328Z,14.48
2023-10-14T15:42:53.798Z,14.16
2023-10-14T15:47:58.444Z,14.35
2023-10-14T15:53:01.390Z,14.18
2023-10-14T15:58:06.653Z,13.99
2023-10-14T16:03:10.507Z,14.14
2023-10-14T16:08:17.382Z,13.96
2023-10-14T16:13:24.124Z,13.86
2023-10-14T16:18:27.285Z,13.86
2023-10-14T16:23:30.162Z,13.65
2023-10-14T16:28:35.495Z,13.47
2023-10-14T16:33:38.565Z,13.55
2023-10-14T16:38:44.569Z,13.51
2023-10-14T16:43:48.928Z,13.39
2023-10-14T16:48:52.858Z,12.99
2023-10-14T16:53:55.788Z,12.94
2023-10-14T16:59:00.255Z,12.99
2023-10-14T17:04:05.839Z,12.84
2023-10-14T17:09:11.859Z,12.93
2023-10-14T17:14:18.019Z,12.80
2023-10-14T17:19:22.421Z,12.58
2023-10-14T17:24:28.510Z,12.49
2023-10-14T17:29:32.833Z,12.43
2023-10-14T17:34:36.135Z,12.54
2023-10-14T17:39:39.518Z,12.50
2023-10-14T17:44:45.331Z,12.30
2023-10-14T17:49:48.308Z,12.16
2023-10-14T17:54:54.834Z,12.37
2023-10-14T17:59:59.246Z,12.00
2023-10-14T18:05:05.708Z,11.87
2023-10-14T18:10:09.569Z,11.71
2023-10-14T18:15:18.222Z,11.75
2023-10-14T18:20:26.758Z,11.62
2023-10-14T18:25:30.500Z,11.72
2023-10-14T18:30:36.055Z,11.67
2023-10-14T18:35:40.864Z,11.40
2023-10-14T18:40:47.717Z,11.44
2023-10-14T18:45:52.717Z,11.43
2023-10-14T18:50:55.751Z,11.37
2023-10-14T18:56:00.612Z,11.33
2023-10-14T19:01:07.154Z,11.35
2023-10-14T19:06:10.109Z,11.23
2023-10-14T19:11:13.534Z,11.23
2023-10-14T19:16:18.189Z,11.01
2023-10-14T19:21:21.440Z,10.97
2023-10-14T19:26:24.383Z,11.04
2023-10-14T19:31:28.629Z,11.11
2023-10-14T19:36:33.448Z,11.03
2023-10-14T19:41:36.568Z,10.88
2023-10-14T19:46:40.974Z,10.76
2023-10-14T19:51:43.870Z,10.70
2023-10-14T19:56:46.785Z,10.75
2023-10-14T20:01:51.509Z,10.51
2023-10-14T20:06:54.455Z,10.43
2023-10-14T20:11:57.348Z,10.36
2023-10-14T20:17:01.699Z,10.27
2023-10-14T20:22:06.231Z,10.42
2023-10-14T20:27:09.160Z,10.52
2023-10-14T20:32:14.825Z,10.65
2023-10-14T20:37:17.925Z,10.39
2023-10-14T20:42:21.108Z,10.50
2023-10-14T20:47:25.618Z,10.46
2023-10-14T20:52:28.555Z,10.53
2023-10-14T20:57:31.885Z,10.55
2023-10-14T21:02:37.929Z,10.33
2023-10-14T21:07:40.861Z,10.39
2023-10-14T21:12:45.040Z,10.41
2023-10-14T21:17:49.401Z,10.45
2023-10-14T21:22:53.576Z,10.51
2023-10-14T21:27:57.499Z,10.40
2023-10-14T21:33:01.944Z,10.49
2023-10-14T21:38:05.976Z,10.42
2023-10-14T21:43:08.872Z,10.67
2023-10-14T21:48:13.557Z,10.47
2023-10-14T21:53:16.505Z,10.53
2023-10-14T21:58:19.433Z,10.53
2023-10-14T22:03:24.383Z,10.48
2023-10-14T22:08:27.390Z,10.41
2023-10-14T22:13:30.357Z,10.48
2023-10-14T22:18:36.896Z,10.40
2023-10-14T22:23:39.772Z,10.30
2023-10-14T22:28:42.707Z,10.15
2023-10-14T22:33:46.994Z,10.23
2023-10-14T22:38:51.027Z,10.10
2023-10-14T22:43:54.417Z,9.97
2023-10-14T22:48:58.766Z,10.10
2023-10-14T22:54:01.614Z,10.11
2023-10-14T22:59:04.706Z,9.98
2023-10-14T23:04:09.853Z,10.04
2023-10-14T23:09:15.007Z,9.88
2023-10-14T23:14:17.995Z,9.86
2023-10-14T23:19:22.276Z,9.81
2023-10-14T23:24:25.331Z,9.85
2023-10-14T23:29:28.339Z,9.78
2023-10-14T23:34:32.672Z,9.75
2023-10-14T23:39:35.539Z,9.72
2023-10-14T23:44:38.510Z,9.91
2023-10-14T23:49:43.021Z,9.66
2023-10-14T23:54:45.981Z,9.77
2023-10-14T23:59:49.238Z,9.73
